Terminal Aerodrome Forecast
Issued by NWS

Current Version | Previous Version | Text Only | Print | Product List | Glossary On
Versions: 1 2 3 4 5 6 7 8 9 10 11 12 13 14 15 16 17 18 19 20
000
FTUS43 KDMX 241003 AAC
TAFFOD
TAF AMD
KFOD 241003Z 2410/2506 22007KT P6SM SCT008 SCT070 BKN150
     FM241400 32008KT P6SM SCT010 BKN100
     FM241700 36008KT P6SM BKN035
     FM250000 35002KT P6SM BKN100=

USA.gov is the U.S. government's official web portal to all federal, state and local government web resources and services.